Time;durP1;ratioP1;P1;durP2;ratioP2;P2;SDS_P1;SDS_P2;PMS_P1;PMS_P2;Temp;Humidity;BMP_temperature;BMP_pressure;BME280_temperature;BME280_humidity;BME280_pressure;Samples;Min_cycle;Max_cycle;Signal;HPM_P1;HPM_P2
2023/10/18 00:01:04;;;;;;;3.58;3.38;;;3.00;99.90;;;;;;6248679;23;20823;-82
2023/10/18 00:03:32;;;;;;;4.72;3.67;;;3.00;99.90;;;;;;6247877;23;20200;-82
2023/10/18 00:06:11;;;;;;;2.63;2.47;;;3.00;99.90;;;;;;6249407;23;20185;-82
2023/10/18 00:08:39;;;;;;;5.93;5.50;;;2.90;99.90;;;;;;6254242;23;20202;-83
2023/10/18 00:11:06;;;;;;;4.95;4.55;;;2.90;99.90;;;;;;6225623;23;20212;-80
2023/10/18 00:13:33;;;;;;;3.22;3.03;;;2.90;99.90;;;;;;6261489;23;20185;-81
2023/10/18 00:16:05;;;;;;;6.85;5.78;;;2.90;99.90;;;;;;6262369;23;20174;-81
2023/10/18 00:18:33;;;;;;;3.25;1.92;;;2.80;99.90;;;;;;6257776;23;20182;-82
2023/10/18 00:21:04;;;;;;;3.85;3.65;;;2.80;99.90;;;;;;6229323;23;20208;-81
2023/10/18 00:23:32;;;;;;;6.70;4.60;;;2.80;99.90;;;;;;6231136;23;20212;-82
2023/10/18 00:26:09;;;;;;;5.03;4.78;;;2.80;99.90;;;;;;6269445;22;20169;-80
2023/10/18 00:28:38;;;;;;;4.97;3.33;;;2.80;99.90;;;;;;6256127;23;20370;-80
2023/10/18 00:31:20;;;;;;;7.43;6.80;;;2.80;99.90;;;;;;6251390;23;20517;-81
2023/10/18 00:33:49;;;;;;;6.00;4.68;;;2.70;99.90;;;;;;6251652;23;20174;-82
2023/10/18 00:36:18;;;;;;;4.25;3.95;;;2.70;99.90;;;;;;6225158;23;20217;-81
2023/10/18 00:38:48;;;;;;;3.88;3.67;;;2.60;99.90;;;;;;6251287;23;20186;-82
2023/10/18 00:41:17;;;;;;;4.60;4.20;;;2.70;99.90;;;;;;6253018;23;20215;-83
2023/10/18 00:43:45;;;;;;;8.02;6.85;;;2.50;99.90;;;;;;6252078;23;20268;-82
2023/10/18 00:46:16;;;;;;;6.07;5.13;;;2.50;99.90;;;;;;6252912;23;20270;-81
2023/10/18 00:48:45;;;;;;;3.78;3.58;;;2.50;99.90;;;;;;6252196;23;20216;-83
2023/10/18 00:51:16;;;;;;;5.25;4.70;;;2.50;99.90;;;;;;6252977;23;20177;-82
2023/10/18 00:53:46;;;;;;;8.43;5.55;;;2.50;99.90;;;;;;6252382;23;20177;-81
2023/10/18 00:56:15;;;;;;;5.72;5.00;;;2.50;99.90;;;;;;6252392;23;20256;-80
2023/10/18 00:58:44;;;;;;;5.47;4.97;;;2.40;99.90;;;;;;6251420;23;20184;-80
2023/10/18 01:01:13;;;;;;;5.40;5.07;;;2.40;99.90;;;;;;6252295;23;20176;-80
2023/10/18 01:03:46;;;;;;;3.78;3.58;;;2.50;99.90;;;;;;6225812;23;20220;-81
2023/10/18 01:06:21;;;;;;;4.30;3.97;;;2.50;99.90;;;;;;6252979;23;20280;-81
2023/10/18 01:08:51;;;;;;;4.78;4.45;;;2.50;99.90;;;;;;6255453;23;20185;-81
2023/10/18 01:11:28;;;;;;;8.27;6.20;;;2.60;99.90;;;;;;6231819;23;20185;-81
2023/10/18 01:13:59;;;;;;;4.65;4.35;;;2.60;99.90;;;;;;6257653;23;20169;-82
2023/10/18 01:16:36;;;;;;;6.10;5.50;;;2.60;99.90;;;;;;6256286;23;20230;-81
2023/10/18 01:19:08;;;;;;;5.95;5.20;;;2.50;99.90;;;;;;6226262;23;20212;-81
2023/10/18 01:21:37;;;;;;;3.13;3.03;;;2.50;99.90;;;;;;6248701;23;20524;-81
2023/10/18 01:24:13;;;;;;;7.57;4.93;;;2.40;99.90;;;;;;6249702;23;20749;-80
2023/10/18 01:26:41;;;;;;;2.88;2.67;;;2.30;99.90;;;;;;6250066;23;20165;-81
2023/10/18 01:29:08;;;;;;;6.07;5.68;;;2.40;99.90;;;;;;6250663;23;20269;-81
2023/10/18 01:31:36;;;;;;;4.03;3.80;;;2.30;99.90;;;;;;6250346;23;20188;-81
2023/10/18 01:34:04;;;;;;;3.90;3.70;;;2.30;99.90;;;;;;6250032;23;20177;-81
2023/10/18 01:36:32;;;;;;;6.22;4.93;;;2.20;99.90;;;;;;6250771;23;20184;-80
2023/10/18 01:38:59;;;;;;;6.85;5.25;;;2.10;99.90;;;;;;6252651;23;20169;-79
2023/10/18 01:41:29;;;;;;;3.72;3.53;;;2.20;99.90;;;;;;6229225;23;20197;-77
2023/10/18 01:44:05;;;;;;;5.53;5.05;;;2.20;99.90;;;;;;6252148;23;20258;-80
2023/10/18 01:46:33;;;;;;;4.55;4.15;;;2.30;99.90;;;;;;6251196;23;20203;-79
2023/10/18 01:49:01;;;;;;;10.73;5.25;;;2.30;99.90;;;;;;6250527;23;20458;-78
2023/10/18 01:51:28;;;;;;;9.02;5.32;;;2.30;99.90;;;;;;6251198;23;20377;-78
2023/10/18 01:53:55;;;;;;;5.63;5.30;;;2.20;99.90;;;;;;6250962;23;20194;-80
2023/10/18 01:56:22;;;;;;;4.00;3.13;;;2.20;99.90;;;;;;6250655;23;20184;-80
2023/10/18 01:58:50;;;;;;;2.92;2.78;;;2.20;99.90;;;;;;6249705;23;20247;-81
2023/10/18 02:01:17;;;;;;;18.48;5.93;;;2.20;99.90;;;;;;6249964;23;20184;-81
2023/10/18 02:03:44;;;;;;;5.40;4.97;;;2.20;99.90;;;;;;6249155;23;20456;-80
2023/10/18 02:06:15;;;;;;;5.82;5.40;;;2.20;99.90;;;;;;6249270;23;20186;-78
2023/10/18 02:08:43;;;;;;;6.15;4.47;;;2.30;99.90;;;;;;6248952;23;20193;-80
2023/10/18 02:11:11;;;;;;;3.47;3.28;;;2.40;99.90;;;;;;6249472;23;20208;-79
2023/10/18 02:13:39;;;;;;;3.30;3.08;;;2.30;99.90;;;;;;6250319;23;20196;-80
2023/10/18 02:16:06;;;;;;;9.60;6.72;;;2.20;99.90;;;;;;6253123;23;20728;-80
2023/10/18 02:18:34;;;;;;;4.20;3.92;;;2.10;99.90;;;;;;6228040;23;20227;-79
2023/10/18 02:21:02;;;;;;;12.48;3.35;;;1.90;99.90;;;;;;6250284;23;20192;-81
2023/10/18 02:23:34;;;;;;;5.88;4.75;;;1.80;99.90;;;;;;6251055;23;20254;-81
2023/10/18 02:26:09;;;;;;;5.38;4.97;;;1.70;99.90;;;;;;6254625;23;20161;-81
2023/10/18 02:28:37;;;;;;;6.00;5.20;;;1.60;99.90;;;;;;6253049;23;20505;-82
2023/10/18 02:33:38;;;;;;;3.75;3.55;;;1.60;99.90;;;;;;6251432;23;20409;-82
2023/10/18 02:36:52;;;;;;;4.28;3.95;;;1.50;99.90;;;;;;6251064;23;20478;-83
2023/10/18 02:38:54;;;;;;;3.35;3.05;;;1.50;99.90;;;;;;6245622;23;20439;-82
2023/10/18 02:41:26;;;;;;;6.80;6.22;;;1.60;99.90;;;;;;6249845;23;20191;-82
2023/10/18 02:43:59;;;;;;;7.28;6.15;;;1.70;99.90;;;;;;6253514;23;20203;-82
2023/10/18 02:46:33;;;;;;;3.75;3.53;;;1.40;99.90;;;;;;6235691;22;20193;-82
2023/10/18 02:49:00;;;;;;;4.35;3.92;;;1.40;99.90;;;;;;6273131;22;20159;-81
2023/10/18 02:51:31;;;;;;;10.73;3.75;;;1.40;99.90;;;;;;6272676;22;20201;-82
2023/10/18 02:54:10;;;;;;;2.45;2.05;;;1.50;99.90;;;;;;6272512;22;20171;-81
2023/10/18 02:56:38;;;;;;;7.47;4.40;;;1.40;99.90;;;;;;6256727;22;20184;-82
2023/10/18 02:59:10;;;;;;;4.75;4.50;;;1.50;99.90;;;;;;6253482;23;20215;-81
2023/10/18 03:01:40;;;;;;;5.60;5.15;;;1.40;99.90;;;;;;6252427;23;20349;-81
2023/10/18 03:04:16;;;;;;;3.47;3.28;;;1.50;99.90;;;;;;6226184;23;20208;-81
2023/10/18 03:06:46;;;;;;;5.30;4.90;;;1.40;99.90;;;;;;6252034;23;20177;-81
2023/10/18 03:09:27;;;;;;;4.20;3.30;;;1.40;99.90;;;;;;6252714;23;20176;-81
2023/10/18 03:11:55;;;;;;;9.20;8.50;;;1.60;99.90;;;;;;6226536;23;20191;-80
2023/10/18 03:14:36;;;;;;;5.63;3.53;;;1.60;99.90;;;;;;6252082;23;20355;-82
2023/10/18 03:17:14;;;;;;;1.83;1.77;;;1.60;99.90;;;;;;6250861;23;20170;-80
2023/10/18 03:19:44;;;;;;;2.58;2.47;;;1.50;99.90;;;;;;6251740;23;20598;-79
2023/10/18 03:22:11;;;;;;;7.45;6.95;;;1.60;99.90;;;;;;6269681;23;20176;-80
2023/10/18 03:24:38;;;;;;;5.40;5.00;;;1.50;99.90;;;;;;6272904;23;20176;-80
2023/10/18 03:27:10;;;;;;;3.47;3.25;;;1.60;99.90;;;;;;6270612;22;20227;-83
2023/10/18 03:29:37;;;;;;;13.82;9.10;;;1.70;99.90;;;;;;6253167;23;20190;-82
2023/10/18 03:32:08;;;;;;;5.43;5.03;;;1.70;99.90;;;;;;6252973;23;20188;-83
2023/10/18 03:34:37;;;;;;;6.18;4.57;;;1.50;99.90;;;;;;6225339;23;20224;-82
2023/10/18 03:37:06;;;;;;;6.18;5.68;;;1.40;99.90;;;;;;6250798;23;20212;-82
2023/10/18 03:39:33;;;;;;;5.63;5.22;;;1.40;99.90;;;;;;6250885;23;20178;-82
2023/10/18 03:42:08;;;;;;;9.05;8.15;;;1.40;99.90;;;;;;6248538;23;20184;-83
2023/10/18 03:44:35;;;;;;;5.20;4.18;;;1.30;99.90;;;;;;6250980;23;20413;-81
2023/10/18 03:47:11;;;;;;;5.45;5.05;;;1.30;99.90;;;;;;6251101;23;20247;-82
2023/10/18 03:49:41;;;;;;;6.43;3.67;;;1.10;99.90;;;;;;6250410;23;20193;-82
2023/10/18 03:52:17;;;;;;;8.88;6.35;;;1.10;99.90;;;;;;6248651;23;20184;-83
2023/10/18 03:57:29;;;;;;;9.05;8.38;;;1.00;99.90;;;;;;6252136;23;20169;-82
2023/10/18 04:00:06;;;;;;;6.18;4.65;;;1.00;99.90;;;;;;6251402;23;20185;-82
2023/10/18 04:02:34;;;;;;;8.13;7.60;;;1.00;99.90;;;;;;6224420;23;20488;-82
2023/10/18 04:05:13;;;;;;;6.63;5.72;;;1.20;99.90;;;;;;6252855;23;20208;-81
2023/10/18 04:07:44;;;;;;;15.52;7.53;;;0.80;99.90;;;;;;6237903;23;20204;-80
2023/10/18 04:10:17;;;;;;;6.15;5.65;;;0.90;99.90;;;;;;6257558;23;20212;-82
2023/10/18 04:12:45;;;;;;;9.85;4.78;;;0.90;99.90;;;;;;6251116;23;20227;-82
2023/10/18 04:15:22;;;;;;;5.63;5.13;;;1.00;99.90;;;;;;6199612;23;20578;-80
2023/10/18 04:20:35;;;;;;;2.13;2.03;;;0.90;99.90;;;;;;6249911;23;20176;-81
2023/10/18 04:23:15;;;;;;;5.95;5.45;;;1.10;99.90;;;;;;6250912;23;20377;-81
2023/10/18 04:25:42;;;;;;;7.70;7.03;;;0.90;99.90;;;;;;6254937;23;20169;-82
2023/10/18 04:28:12;;;;;;;5.10;4.72;;;1.00;99.90;;;;;;6253990;23;20433;-80
2023/10/18 04:30:39;;;;;;;3.67;3.38;;;1.10;99.90;;;;;;6251285;23;20175;-82
2023/10/18 04:33:24;;;;;;;5.57;5.18;;;1.00;99.90;;;;;;6250959;23;20184;-82
2023/10/18 04:35:57;;;;;;;5.60;4.60;;;1.00;99.90;;;;;;6251219;23;20229;-80
2023/10/18 04:38:39;;;;;;;4.55;3.33;;;0.90;99.90;;;;;;6250613;23;20513;-82
2023/10/18 04:44:04;;;;;;;3.45;3.35;;;1.00;99.90;;;;;;6248172;23;20246;-82
2023/10/18 04:46:37;;;;;;;4.88;4.40;;;1.00;99.90;;;;;;6249555;23;20190;-80
2023/10/18 04:56:56;;;;;;;4.95;4.70;;;0.80;99.90;;;;;;6207133;23;20363;-81
2023/10/18 04:59:29;;;;;;;2.83;2.63;;;0.70;99.90;;;;;;6224935;23;20190;-78
2023/10/18 05:01:57;;;;;;;22.77;4.85;;;0.70;99.90;;;;;;6257514;23;20377;-81
2023/10/18 05:04:32;;;;;;;3.50;3.30;;;0.70;99.90;;;;;;6225369;23;20204;-82
2023/10/18 05:07:14;;;;;;;3.20;3.00;;;0.70;99.90;;;;;;6224595;23;20152;-81
2023/10/18 05:09:43;;;;;;;4.95;4.68;;;0.70;99.90;;;;;;6250866;23;20147;-82
2023/10/18 05:12:27;;;;;;;5.05;4.75;;;0.60;99.90;;;;;;6251136;23;20357;-79
2023/10/18 05:22:44;;;;;;;5.40;5.03;;;0.80;99.90;;;;;;6251467;23;20234;-81
2023/10/18 05:28:00;;;;;;;2.70;2.60;;;0.80;99.90;;;;;;6250889;23;20242;-82
2023/10/18 05:38:50;;;;;;;10.43;6.53;;;0.80;99.90;;;;;;6248022;23;20403;-81
2023/10/18 05:44:01;;;;;;;5.68;4.55;;;0.90;99.90;;;;;;6246894;23;20238;-80
2023/10/18 05:46:34;;;;;;;1.30;1.30;;;0.80;99.90;;;;;;6249326;23;20238;-81
2023/10/18 05:49:13;;;;;;;2.42;2.22;;;0.80;99.90;;;;;;6224138;23;20167;-80
2023/10/18 05:54:31;;;;;;;7.75;7.22;;;0.90;99.90;;;;;;6250036;23;20543;-82
2023/10/18 05:57:00;;;;;;;2.42;2.30;;;0.90;99.90;;;;;;6248605;23;20188;-82
2023/10/18 05:59:31;;;;;;;3.35;3.10;;;0.90;99.90;;;;;;6252987;23;20183;-81
2023/10/18 06:02:10;;;;;;;4.25;3.30;;;1.00;99.90;;;;;;6249880;23;20184;-80
2023/10/18 06:04:43;;;;;;;4.43;4.13;;;1.20;99.90;;;;;;6221662;23;20199;-81
2023/10/18 06:07:12;;;;;;;3.50;3.30;;;1.30;99.90;;;;;;6249309;23;20810;-80
2023/10/18 06:09:46;;;;;;;4.45;3.50;;;1.40;99.90;;;;;;6250864;23;20230;-82
2023/10/18 06:12:21;;;;;;;3.83;3.63;;;1.30;99.90;;;;;;6250728;23;20175;-80
2023/10/18 06:14:51;;;;;;;4.07;3.72;;;1.40;99.90;;;;;;6225391;23;20183;-81
2023/10/18 06:17:25;;;;;;;2.90;2.63;;;1.40;99.90;;;;;;6223909;23;20169;-81
2023/10/18 06:19:55;;;;;;;1.35;1.35;;;1.50;99.90;;;;;;6223535;23;20160;-83
2023/10/18 06:22:43;;;;;;;4.97;3.88;;;1.80;99.90;;;;;;6249646;23;20180;-81
2023/10/18 06:25:25;;;;;;;2.65;2.45;;;1.80;99.90;;;;;;6251713;23;20662;-82
2023/10/18 06:27:53;;;;;;;5.75;3.60;;;1.70;99.90;;;;;;6255550;23;20168;-82
2023/10/18 06:30:24;;;;;;;4.75;4.45;;;1.70;99.90;;;;;;6234304;23;20290;-82
2023/10/18 06:32:55;;;;;;;6.40;5.15;;;1.80;99.90;;;;;;6266071;23;20239;-80
2023/10/18 06:35:26;;;;;;;3.53;3.20;;;1.90;99.90;;;;;;6234018;23;20165;-81
2023/10/18 06:37:54;;;;;;;6.30;5.30;;;2.10;99.90;;;;;;6255922;23;20171;-81
2023/10/18 06:40:40;;;;;;;3.42;3.17;;;2.20;99.90;;;;;;6230664;23;20176;-82
2023/10/18 06:43:23;;;;;;;3.60;3.40;;;2.30;99.90;;;;;;6253609;23;20365;-81
2023/10/18 06:45:51;;;;;;;4.18;3.80;;;2.50;99.90;;;;;;6253133;23;20192;-79
2023/10/18 06:48:18;;;;;;;7.60;7.07;;;2.70;99.90;;;;;;6268238;22;20178;-81
2023/10/18 06:50:46;;;;;;;4.05;3.78;;;2.80;99.90;;;;;;6271389;22;20245;-83
2023/10/18 06:53:15;;;;;;;3.53;3.33;;;2.90;99.90;;;;;;6269436;22;20159;-82
2023/10/18 06:55:45;;;;;;;5.93;5.53;;;2.90;99.90;;;;;;6261800;22;20229;-80
2023/10/18 07:01:03;;;;;;;5.40;5.00;;;3.20;99.90;;;;;;6249454;23;20175;-83
2023/10/18 07:03:42;;;;;;;3.78;3.60;;;3.40;99.90;;;;;;6249677;23;20160;-81
2023/10/18 07:06:18;;;;;;;3.90;3.72;;;3.50;99.90;;;;;;6250230;23;20199;-80
2023/10/18 07:08:52;;;;;;;7.00;5.53;;;3.90;99.90;;;;;;6252754;23;20150;-80
2023/10/18 07:11:19;;;;;;;4.03;3.83;;;4.90;99.90;;;;;;6271126;22;20193;-80
2023/10/18 07:14:00;;;;;;;3.90;2.55;;;6.50;99.90;;;;;;6271506;22;20153;-83
2023/10/18 07:19:24;;;;;;;3.20;3.05;;;7.20;99.90;;;;;;6257643;22;20249;-80
2023/10/18 07:21:57;;;;;;;0.77;0.77;;;7.60;99.90;;;;;;6253397;23;20209;-82
2023/10/18 07:24:32;;;;;;;2.00;1.90;;;7.80;99.90;;;;;;6254004;23;20209;-81
2023/10/18 07:27:03;;;;;;;2.22;2.13;;;8.50;99.90;;;;;;6258901;23;20369;-81
2023/10/18 07:29:32;;;;;;;1.75;1.70;;;10.60;99.90;;;;;;6225973;23;20217;-80
2023/10/18 07:32:06;;;;;;;2.13;2.03;;;12.00;99.90;;;;;;6251027;23;20183;-82
2023/10/18 07:34:36;;;;;;;2.88;2.75;;;13.10;99.90;;;;;;6251480;23;20199;-81
2023/10/18 07:37:23;;;;;;;1.40;1.33;;;12.70;99.90;;;;;;6201560;23;20198;-81
2023/10/18 07:39:56;;;;;;;1.50;1.40;;;13.50;99.90;;;;;;6251037;23;20168;-84
2023/10/18 07:42:26;;;;;;;2.07;1.97;;;14.00;99.90;;;;;;6251248;23;20518;-81
2023/10/18 07:44:55;;;;;;;4.27;3.97;;;14.10;99.90;;;;;;6251531;23;20528;-81
2023/10/18 07:47:25;;;;;;;2.37;2.27;;;13.60;99.90;;;;;;6251768;23;20422;-82
2023/10/18 07:49:58;;;;;;;1.50;1.50;;;13.30;99.90;;;;;;6249828;23;20380;-80
2023/10/18 07:52:25;;;;;;;2.23;2.13;;;13.40;99.90;;;;;;6250754;23;20391;-79
2023/10/18 07:54:53;;;;;;;5.23;4.73;;;13.20;99.90;;;;;;6250633;23;20379;-81
2023/10/18 07:57:29;;;;;;;1.33;1.33;;;13.40;99.90;;;;;;6250628;23;20371;-80
2023/10/18 08:00:21;;;;;;;3.83;3.47;;;13.50;99.90;;;;;;6250019;23;20423;-81
2023/10/18 08:02:43;;;;;;;2.60;2.50;;;12.80;99.90;;;;;;6249203;23;20476;-81
2023/10/18 08:05:12;;;;;;;3.00;2.80;;;13.10;99.90;;;;;;6250743;23;20482;-80
2023/10/18 08:07:39;;;;;;;3.10;2.90;;;13.30;99.90;;;;;;6250427;23;20688;-80
2023/10/18 08:10:08;;;;;;;3.50;3.20;;;13.80;99.90;;;;;;6270110;22;20423;-77
2023/10/18 08:12:35;;;;;;;2.73;2.53;;;13.30;99.90;;;;;;6273697;22;20451;-83
2023/10/18 08:15:13;;;;;;;2.50;1.77;;;12.30;99.90;;;;;;6264804;22;20411;-80
2023/10/18 08:17:43;;;;;;;1.67;1.57;;;11.20;99.90;;;;;;6202362;23;20366;-78
2023/10/18 08:22:53;;;;;;;36.83;3.83;;;11.10;99.90;;;;;;6250208;23;20352;-81
2023/10/18 08:25:31;;;;;;;3.20;3.10;;;10.30;99.90;;;;;;6250516;23;20462;-81
2023/10/18 08:28:02;;;;;;;1.10;1.10;;;10.20;99.90;;;;;;6224903;23;20383;-82
2023/10/18 08:31:03;;;;;;;1.83;1.73;;;10.00;99.90;;;;;;6250813;23;20399;-79
2023/10/18 08:33:26;;;;;;;1.97;1.87;;;10.00;99.90;;;;;;6254521;23;20404;-78
2023/10/18 08:35:58;;;;;;;4.10;3.90;;;10.00;99.90;;;;;;6252341;23;20375;-80
2023/10/18 08:38:26;;;;;;;3.67;3.43;;;10.70;99.90;;;;;;6250938;23;20578;-84
2023/10/18 08:41:11;;;;;;;3.30;3.00;;;11.30;99.90;;;;;;6250126;23;20378;-79
2023/10/18 08:43:48;;;;;;;1.87;1.77;;;11.10;99.90;;;;;;6249916;23;20480;-79
2023/10/18 08:46:16;;;;;;;2.57;2.47;;;10.70;99.90;;;;;;6250854;23;20395;-80
2023/10/18 08:48:45;;;;;;;2.40;2.30;;;10.80;99.90;;;;;;6251163;23;20641;-79
2023/10/18 08:51:12;;;;;;;2.10;2.00;;;11.00;99.90;;;;;;6250131;23;20376;-81
2023/10/18 08:53:41;;;;;;;2.27;2.20;;;11.20;99.90;;;;;;6250925;23;20396;-80
2023/10/18 08:56:09;;;;;;;2.07;1.97;;;11.40;99.90;;;;;;6224508;23;20458;-78
2023/10/18 08:58:37;;;;;;;1.80;1.70;;;10.90;99.90;;;;;;6249082;23;20400;-80
2023/10/18 09:01:05;;;;;;;3.90;3.70;;;10.60;99.90;;;;;;6222741;23;20767;-79
2023/10/18 09:03:35;;;;;;;3.47;3.27;;;10.50;99.90;;;;;;6249783;23;20371;-78
2023/10/18 09:06:07;;;;;;;4.23;4.03;;;10.70;99.90;;;;;;6250640;23;20525;-79
2023/10/18 09:08:36;;;;;;;2.10;2.00;;;11.00;99.90;;;;;;6249446;23;20356;-78
2023/10/18 09:11:09;;;;;;;2.65;2.08;;;10.70;99.90;;;;;;6249610;23;20238;-79
2023/10/18 09:13:49;;;;;;;4.53;3.13;;;11.00;99.90;;;;;;6222965;23;20566;-79
2023/10/18 09:16:35;;;;;;;1.08;1.08;;;10.80;99.90;;;;;;6249391;23;20495;-81
2023/10/18 09:19:02;;;;;;;0.82;0.82;;;11.10;99.90;;;;;;6250125;23;20235;-80
2023/10/18 09:21:36;;;;;;;1.95;1.85;;;10.80;99.90;;;;;;6223136;23;20198;-79
2023/10/18 09:24:03;;;;;;;1.55;1.55;;;11.00;99.90;;;;;;6246510;23;20176;-83
2023/10/18 09:26:40;;;;;;;4.13;3.78;;;11.00;99.90;;;;;;6248803;23;20261;-81
2023/10/18 09:29:10;;;;;;;1.52;1.42;;;10.80;99.90;;;;;;6249716;23;20194;-81
2023/10/18 09:31:52;;;;;;;1.08;1.08;;;10.80;99.90;;;;;;6247270;23;20168;-78
2023/10/18 09:34:33;;;;;;;2.22;2.10;;;10.80;99.90;;;;;;6249569;23;20463;-79
2023/10/18 09:37:04;;;;;;;0.70;0.70;;;11.00;99.90;;;;;;6251132;23;20187;-78
2023/10/18 09:39:42;;;;;;;0.80;0.80;;;11.10;99.90;;;;;;6239849;22;20207;-77
2023/10/18 09:42:15;;;;;;;3.67;3.47;;;11.00;99.90;;;;;;6272489;22;20215;-78
2023/10/18 09:44:42;;;;;;;2.03;1.92;;;11.00;99.90;;;;;;6269130;22;20175;-80
2023/10/18 09:47:11;;;;;;;1.58;1.55;;;11.00;99.90;;;;;;6256600;22;20243;-80
2023/10/18 09:49:41;;;;;;;0.80;0.80;;;11.10;99.90;;;;;;6250710;23;20183;-80
2023/10/18 09:52:11;;;;;;;0.70;0.70;;;11.20;99.90;;;;;;6249952;23;20210;-81
2023/10/18 09:54:51;;;;;;;2.38;2.17;;;11.20;99.90;;;;;;6223444;23;20214;-76
2023/10/18 09:57:35;;;;;;;1.85;1.77;;;11.30;99.90;;;;;;6251003;23;20464;-77
2023/10/18 10:00:14;;;;;;;2.40;2.30;;;11.10;99.90;;;;;;6250878;23;20168;-80
2023/10/18 10:02:43;;;;;;;1.02;1.00;;;11.20;99.90;;;;;;6250634;23;20229;-79
2023/10/18 10:05:24;;;;;;;1.65;1.55;;;11.30;99.90;;;;;;6250720;23;20203;-78
2023/10/18 10:07:56;;;;;;;0.98;0.98;;;11.40;99.90;;;;;;6250392;23;20167;-80
2023/10/18 10:10:42;;;;;;;0.95;0.95;;;11.50;99.90;;;;;;6223167;23;20183;-81
2023/10/18 10:13:27;;;;;;;1.48;1.42;;;11.60;99.90;;;;;;6223511;23;20175;-81
2023/10/18 10:15:59;;;;;;;2.25;2.15;;;11.50;99.90;;;;;;6250722;23;20223;-77
2023/10/18 10:18:31;;;;;;;3.53;3.30;;;11.30;99.90;;;;;;6249194;23;20286;-82
2023/10/18 10:21:03;;;;;;;1.13;1.13;;;11.00;99.90;;;;;;6247516;23;20196;-81
2023/10/18 10:23:38;;;;;;;1.98;1.88;;;11.40;99.90;;;;;;5052262;28;20539;-79
2023/10/18 10:26:11;;;;;;;1.30;1.23;;;11.70;99.90;;;;;;5061168;28;20204;-82
2023/10/18 10:31:55;;;;;;;1.00;1.00;;;11.60;99.90;;;;;;5057307;28;20461;-79
2023/10/18 10:34:27;;;;;;;0.95;0.95;;;11.60;99.90;;;;;;5051182;28;20196;-80
2023/10/18 10:37:05;;;;;;;0.60;0.60;;;11.50;99.90;;;;;;5065014;28;20931;-78
2023/10/18 10:39:36;;;;;;;0.88;0.88;;;11.70;99.90;;;;;;5060197;28;20247;-80
2023/10/18 10:42:08;;;;;;;7.07;4.63;;;11.70;99.90;;;;;;5055548;28;20485;-81
2023/10/18 10:45:23;;;;;;;0.68;0.68;;;11.60;99.90;;;;;;5059453;28;20271;-80
2023/10/18 10:47:50;;;;;;;1.35;1.25;;;11.20;99.90;;;;;;5051876;28;20249;-83
2023/10/18 10:50:43;;;;;;;4.30;4.00;;;11.60;99.90;;;;;;5060239;28;20200;-80
2023/10/18 10:53:10;;;;;;;1.00;1.00;;;11.50;99.90;;;;;;5054159;28;20215;-78
2023/10/18 10:55:39;;;;;;;0.60;0.60;;;11.70;99.90;;;;;;5064805;28;20299;-80
2023/10/18 10:58:16;;;;;;;1.55;1.55;;;11.60;99.90;;;;;;5044831;28;20216;-81
2023/10/18 11:01:13;;;;;;;1.75;1.65;;;11.80;99.90;;;;;;5041143;28;20211;-82
2023/10/18 11:03:55;;;;;;;1.85;1.75;;;11.60;99.90;;;;;;5042239;28;20304;-79
2023/10/18 11:06:23;;;;;;;0.90;0.90;;;11.50;99.90;;;;;;5050367;28;20635;-80
2023/10/18 11:08:56;;;;;;;2.13;2.03;;;11.50;99.90;;;;;;5048287;28;20205;-80
2023/10/18 11:11:26;;;;;;;1.35;1.35;;;11.50;99.90;;;;;;5053958;28;20275;-82
2023/10/18 11:13:53;;;;;;;0.90;0.90;;;11.90;99.90;;;;;;5052592;28;20682;-81
2023/10/18 11:16:24;;;;;;;1.00;1.00;;;11.70;99.90;;;;;;5057028;28;20271;-76
2023/10/18 11:18:52;;;;;;;0.82;0.82;;;11.80;99.90;;;;;;5050236;28;20197;-80
2023/10/18 11:21:28;;;;;;;0.60;0.60;;;11.60;99.90;;;;;;5049002;28;20200;-79
2023/10/18 11:24:04;;;;;;;0.80;0.80;;;11.50;99.90;;;;;;5048763;28;20216;-81
2023/10/18 11:26:39;;;;;;;0.70;0.70;;;11.60;99.90;;;;;;5058417;28;20263;-81
2023/10/18 11:29:07;;;;;;;0.60;0.60;;;11.80;99.90;;;;;;5052658;28;20203;-79
2023/10/18 11:31:38;;;;;;;1.55;1.55;;;11.50;99.90;;;;;;5055538;28;20451;-78
2023/10/18 11:34:14;;;;;;;0.90;0.90;;;11.60;99.90;;;;;;5035438;28;20271;-83
2023/10/18 11:36:42;;;;;;;3.30;3.10;;;11.60;99.90;;;;;;5047697;28;20214;-82
2023/10/18 11:41:49;;;;;;;1.25;1.25;;;11.50;99.90;;;;;;5047995;28;20263;-79
2023/10/18 11:44:33;;;;;;;0.80;0.80;;;11.50;99.90;;;;;;5046641;28;20194;-79
2023/10/18 11:47:01;;;;;;;1.08;1.08;;;11.60;99.90;;;;;;5056657;28;20210;-79
2023/10/18 11:49:39;;;;;;;0.95;0.95;;;11.80;99.90;;;;;;5065401;28;20282;-79
2023/10/18 11:52:16;;;;;;;1.77;1.73;;;11.70;99.90;;;;;;5054811;28;20192;-80
2023/10/18 11:54:45;;;;;;;1.40;1.40;;;11.70;99.90;;;;;;5059285;28;20235;-82
2023/10/18 11:57:29;;;;;;;1.48;1.00;;;11.80;99.90;;;;;;5049077;28;20207;-83
2023/10/18 12:00:25;;;;;;;0.80;0.80;;;11.80;99.90;;;;;;5051371;28;20235;-78
2023/10/18 12:02:47;;;;;;;0.98;0.90;;;11.90;99.90;;;;;;5047439;28;20266;-81
2023/10/18 12:05:15;;;;;;;1.02;1.00;;;11.90;99.90;;;;;;5029835;28;20323;-79
2023/10/18 12:07:53;;;;;;;0.60;0.60;;;11.90;99.90;;;;;;5029984;28;20210;-81
2023/10/18 12:10:25;;;;;;;0.85;0.85;;;11.80;99.90;;;;;;5025066;28;20246;-79
2023/10/18 12:12:58;;;;;;;0.80;0.80;;;11.80;99.90;;;;;;5037714;28;20205;-78
2023/10/18 12:15:30;;;;;;;0.75;0.75;;;11.70;99.90;;;;;;5039791;28;20213;-81
2023/10/18 12:18:01;;;;;;;1.13;1.13;;;11.90;99.90;;;;;;5048323;28;20461;-79
2023/10/18 12:20:35;;;;;;;1.45;1.35;;;11.90;99.90;;;;;;5044148;28;20264;-79
2023/10/18 12:23:25;;;;;;;1.92;1.83;;;12.00;99.90;;;;;;5036763;28;20224;-80
2023/10/18 12:25:53;;;;;;;0.90;0.90;;;11.90;99.90;;;;;;5045319;28;20223;-80
2023/10/18 12:28:35;;;;;;;0.80;0.80;;;11.70;99.90;;;;;;5032870;28;20721;-77
2023/10/18 12:31:09;;;;;;;0.80;0.80;;;11.70;99.90;;;;;;5030166;28;20227;-80
2023/10/18 12:33:40;;;;;;;0.80;0.80;;;11.90;99.90;;;;;;5034439;28;20456;-79
2023/10/18 12:36:08;;;;;;;0.90;0.90;;;11.90;99.90;;;;;;5044347;28;20670;-80
2023/10/18 12:38:37;;;;;;;1.00;1.00;;;11.90;99.90;;;;;;5040337;28;20229;-79
2023/10/18 12:41:18;;;;;;;0.60;0.60;;;11.80;99.90;;;;;;5050081;28;20236;-80
2023/10/18 12:43:46;;;;;;;1.77;1.67;;;11.80;99.90;;;;;;5037694;28;20330;-80
2023/10/18 12:46:17;;;;;;;0.70;0.70;;;11.90;99.90;;;;;;5041772;28;20270;-82
2023/10/18 12:48:44;;;;;;;1.00;1.00;;;11.80;99.90;;;;;;5054395;28;20642;-81
2023/10/18 12:51:14;;;;;;;0.60;0.60;;;11.70;99.90;;;;;;5055121;28;20261;-82
2023/10/18 12:53:47;;;;;;;0.70;0.70;;;11.70;99.90;;;;;;5052258;28;20201;-80
2023/10/18 12:56:25;;;;;;;1.67;1.58;;;11.70;99.90;;;;;;5051298;28;20208;-79
2023/10/18 12:58:54;;;;;;;1.15;1.05;;;11.70;99.90;;;;;;5026302;28;20214;-80
2023/10/18 13:01:29;;;;;;;0.70;0.70;;;11.60;99.90;;;;;;5036783;28;20242;-78
2023/10/18 13:03:57;;;;;;;1.40;1.33;;;11.50;99.90;;;;;;5030145;28;20415;-79
2023/10/18 13:06:35;;;;;;;1.20;1.10;;;11.60;99.90;;;;;;5047001;28;20204;-80
2023/10/18 13:09:21;;;;;;;0.70;0.70;;;11.70;99.90;;;;;;5032725;28;20465;-81
2023/10/18 13:14:29;;;;;;;1.52;1.52;;;11.50;99.90;;;;;;5028341;28;20546;-82
2023/10/18 13:17:00;;;;;;;0.70;0.70;;;11.70;99.90;;;;;;5031604;28;20208;-79
2023/10/18 13:19:30;;;;;;;0.90;0.90;;;11.60;99.90;;;;;;5037267;28;20213;-79
2023/10/18 13:21:59;;;;;;;0.80;0.80;;;11.50;99.90;;;;;;5031481;28;20224;-77
2023/10/18 13:24:28;;;;;;;0.90;0.90;;;11.60;99.90;;;;;;5050993;28;20219;-80
2023/10/18 13:26:59;;;;;;;1.98;1.88;;;11.60;99.90;;;;;;5025863;28;20212;-80
2023/10/18 13:29:30;;;;;;;0.77;0.77;;;11.60;99.90;;;;;;5030493;28;20208;-80
2023/10/18 13:31:58;;;;;;;0.93;0.93;;;11.60;99.90;;;;;;5033774;28;20240;-80
2023/10/18 13:34:32;;;;;;;1.00;1.00;;;11.60;99.90;;;;;;5030253;28;20562;-83
2023/10/18 13:37:04;;;;;;;0.60;0.60;;;11.70;99.90;;;;;;5030489;28;20550;-78
2023/10/18 13:39:31;;;;;;;1.90;1.80;;;11.60;99.90;;;;;;5031913;28;20276;-78
2023/10/18 13:42:00;;;;;;;1.15;1.15;;;11.60;99.90;;;;;;5055958;28;20280;-79
2023/10/18 13:44:29;;;;;;;1.30;1.27;;;11.50;99.90;;;;;;5039474;28;20209;-81
2023/10/18 13:46:57;;;;;;;1.00;1.00;;;11.50;99.90;;;;;;5034888;28;20267;-78
2023/10/18 13:49:41;;;;;;;1.15;1.15;;;11.70;99.90;;;;;;5053216;28;20193;-80
2023/10/18 13:52:11;;;;;;;0.68;0.68;;;11.70;99.90;;;;;;5045621;28;20200;-79
2023/10/18 13:54:38;;;;;;;2.58;2.38;;;11.60;99.90;;;;;;5031574;28;20429;-77
2023/10/18 13:57:05;;;;;;;0.80;0.80;;;11.60;99.90;;;;;;5043769;28;20299;-79
2023/10/18 13:59:34;;;;;;;0.80;0.80;;;11.40;99.90;;;;;;5028016;28;20216;-79
2023/10/18 14:02:01;;;;;;;0.60;0.60;;;11.50;99.90;;;;;;5046544;28;20262;-80
2023/10/18 14:04:32;;;;;;;0.85;0.85;;;11.60;99.90;;;;;;5020158;28;20241;-78
2023/10/18 14:07:00;;;;;;;0.73;0.73;;;11.50;99.90;;;;;;5029015;28;20201;-83
2023/10/18 14:09:33;;;;;;;0.90;0.90;;;11.60;99.90;;;;;;5027487;28;20221;-80
2023/10/18 14:12:01;;;;;;;1.52;1.48;;;11.50;99.90;;;;;;5033374;28;20204;-79
2023/10/18 14:14:31;;;;;;;0.95;0.95;;;11.60;99.90;;;;;;5028409;28;20235;-79
2023/10/18 14:16:59;;;;;;;1.90;1.80;;;11.60;99.90;;;;;;5031374;28;20204;-78